Latest Weather Observations for Kilmore Gap

IDV60801

Issued at 6:35 pm EST Wednesday 30 July 2014 (issued every 30 minutes, with the page automatically refreshed every 10 minutes)

About weather observations | Map of weather stations | Latest weather observations for VIC | Other Formats
Station Details ID: 088162 Name: KILMORE GAP Lat: -37.38 Lon: 144.97 Height: 527.8 m
Data from the previous 72 hours. | See also: Recent months at Kilmore Gap
Date/Time
EST
Temp
°C
App
Temp
°C
Dew
Point
Rel
Hum
%
Delta-T
°C
Wind Press
QNH
hPa
Press
MSL
hPa
Rain
since 9 am
mm
Dir
 
Spd
km/h
Gust
km/h
Spd
kts
Gust
kts
30/06:30pm 11.5 3.3 9.8 89 0.9 NNW 43 57 23 31 1011.1 - 0.0
30/06:00pm 11.5 5.0 10.4 93 0.6 N 35 56 19 30 1011.3 1012.3 0.0
30/05:30pm 11.3 5.0 11.0 98 0.2 N 35 46 19 25 1011.6 - 0.0
30/05:00pm 11.2 5.5 11.2 100 0.0 N 32 39 17 21 1011.6 - 0.0
30/04:30pm 11.2 5.9 11.2 100 0.0 N 30 39 16 21 1011.8 - 0.0
30/04:28pm 11.3 6.0 11.3 100 0.0 N 30 39 16 21 1011.8 - 0.0
30/04:00pm 11.3 6.3 11.0 98 0.2 NNW 28 39 15 21 1011.9 - 0.0
30/03:30pm 11.2 5.8 11.0 99 0.1 N 30 43 16 23 1011.9 - 0.0
30/03:00pm 11.2 5.3 11.2 100 0.0 N 33 46 18 25 1011.7 1012.7 0.0
30/02:30pm 10.8 5.0 10.8 100 0.0 N 32 41 17 22 1011.8 - 0.0
30/02:00pm 10.9 4.2 10.9 100 0.0 N 37 46 20 25 1011.8 - 0.0
30/01:30pm 11.0 5.1 11.0 100 0.0 NNW 33 46 18 25 1012.0 - 0.0
30/01:00pm 11.2 4.6 11.2 100 0.0 NNW 37 48 20 26 1012.3 - 0.0
30/12:30pm 11.2 4.6 11.2 100 0.0 NNW 37 46 20 25 1012.6 - 0.0
30/12:00pm 11.8 5.3 11.8 100 0.0 N 37 48 20 26 1013.2 1014.2 0.0
30/11:42am 11.9 6.4 11.7 99 0.1 NNW 32 50 17 27 1013.4 - 0.0
30/11:30am 11.4 5.5 11.2 99 0.1 NNW 33 43 18 23 1013.6 - 0.0
30/11:00am 11.4 6.7 10.6 95 0.4 NW 26 37 14 20 1013.9 - 0.0
30/10:30am 10.8 6.1 10.6 99 0.1 NW 26 33 14 18 1014.6 - 0.0
30/10:01am 10.3 4.2 10.3 100 0.0 NNW 33 52 18 28 1013.9 - 0.0
30/10:00am 10.3 3.8 10.3 100 0.0 NNW 35 52 19 28 1013.8 - 0.0
30/09:49am 10.1 3.5 10.1 100 0.0 NNW 35 48 19 26 1013.7 - 0.0
30/09:30am 9.8 3.5 9.8 100 0.0 N 33 44 18 24 1013.7 - 0.0
30/09:00am 9.4 3.2 9.4 100 0.0 N 32 39 17 21 1013.5 1014.5 2.4
30/08:30am 9.2 3.0 9.2 100 0.0 N 32 39 17 21 1013.6 - 2.4
30/08:08am 9.0 3.1 9.0 100 0.0 N 30 35 16 19 1013.5 - 2.4
30/08:01am 8.7 2.7 8.7 100 0.0 N 30 35 16 19 1013.5 - 2.4
30/08:00am 8.7 2.7 8.7 100 0.0 N 30 35 16 19 1013.5 - 2.4
30/07:56am 8.8 2.5 8.8 100 0.0 N 32 35 17 19 1013.5 - 2.4
30/07:52am 8.8 2.5 8.8 100 0.0 N 32 39 17 21 1013.6 - 2.4
30/07:38am 8.9 3.0 8.9 100 0.0 N 30 35 16 19 1013.5 - 2.4
30/07:32am 8.9 2.6 8.9 100 0.0 N 32 37 17 20 1013.5 - 2.4
30/07:30am 8.9 2.6 8.9 100 0.0 N 32 37 17 20 1013.5 - 2.4
30/07:00am 9.0 3.5 9.0 100 0.0 NNW 28 33 15 18 1013.2 - 2.4
30/06:45am 9.2 4.5 9.2 100 0.0 NNW 24 35 13 19 1013.3 - 2.4
30/06:35am 9.4 4.4 9.4 100 0.0 NNW 26 35 14 19 1013.3 - 2.4
30/06:30am 9.5 4.5 9.5 100 0.0 NNW 26 32 14 17 1013.3 - 2.4
30/06:00am 9.5 4.5 9.5 100 0.0 N 26 32 14 17 1012.9 1013.9 2.4
30/05:30am 9.6 5.0 9.6 100 0.0 NNW 24 30 13 16 1012.9 - 2.4
30/05:00am 9.6 4.6 9.6 100 0.0 N 26 32 14 17 1012.4 - 2.4
30/04:30am 9.7 5.1 9.7 100 0.0 N 24 32 13 17 1012.6 - 2.4
30/04:24am 9.6 5.4 9.6 100 0.0 N 22 30 12 16 1012.6 - 2.4
30/04:00am 9.8 6.0 9.8 100 0.0 N 20 26 11 14 1012.6 - 2.4
30/03:30am 9.7 6.1 9.7 100 0.0 NNW 19 24 10 13 1012.8 - 2.4
30/03:00am 10.0 5.5 10.0 100 0.0 NNW 24 33 13 18 1012.8 1013.8 2.4
30/02:30am 9.8 6.0 9.8 100 0.0 NNW 20 28 11 15 1012.7 - 2.4
30/02:11am 9.9 5.4 9.9 100 0.0 NNW 24 35 13 19 1012.7 - 2.4
30/02:00am 10.2 5.4 10.2 100 0.0 NNW 26 35 14 19 1012.8 - 2.4
30/01:30am 10.1 4.5 10.1 100 0.0 NW 30 37 16 20 1012.7 - 2.2
30/01:00am 10.3 4.4 10.3 100 0.0 NW 32 41 17 22 1012.3 - 2.2
30/12:48am 10.3 4.4 10.3 100 0.0 NNW 32 43 17 23 1012.2 - 2.2
30/12:30am 10.6 5.1 10.6 100 0.0 NW 30 39 16 21 1012.2 - 2.0
30/12:25am 10.7 4.9 10.7 100 0.0 NW 32 41 17 22 1012.2 - 2.0
30/12:24am 10.7 4.9 10.7 100 0.0 NW 32 41 17 22 1012.2 - 2.0
30/12:00am 10.7 5.2 10.7 100 0.0 NW 30 35 16 19 1012.7 1013.6 2.0
 
Date/Time
EST
Temp
°C
App
Temp
°C
Dew
Point
Rel
Hum
%
Delta-T
°C
Wind Press
QNH
hPa
Press
MSL
hPa
Rain
since 9 am
mm
Dir
 
Spd
km/h
Gust
km/h
Spd
kts
Gust
kts
29/11:30pm 10.4 4.9 10.4 100 0.0 NNW 30 39 16 21 1012.2 - 2.0
29/11:00pm 10.4 5.6 10.4 100 0.0 NNW 26 33 14 18 1012.6 - 2.0
29/10:37pm 10.9 4.8 10.4 97 0.3 NNW 33 46 18 25 1012.3 - 2.0
29/10:30pm 11.1 5.2 10.3 95 0.4 NNW 32 46 17 25 1012.1 - 2.0
29/10:00pm 10.6 5.9 10.6 100 0.0 NNW 26 35 14 19 1012.2 - 2.0
29/09:30pm 10.5 5.0 10.5 100 0.0 NNW 30 43 16 23 1012.1 - 2.0
29/09:00pm 10.6 3.4 10.6 100 0.0 NNW 39 50 21 27 1011.5 1012.5 2.0
29/08:56pm 10.5 3.3 10.5 100 0.0 NNW 39 50 21 27 1011.3 - 2.0
29/08:30pm 10.2 4.0 10.2 100 0.0 NNW 33 43 18 23 1011.8 - 1.8
29/08:00pm 10.2 4.0 10.2 100 0.0 N 33 41 18 22 1011.5 - 1.8
29/07:55pm 10.2 4.0 10.2 100 0.0 N 33 41 18 22 1011.5 - 1.6
29/07:50pm 10.2 4.2 10.2 100 0.0 N 32 39 17 21 1011.5 - 1.4
29/07:47pm 10.2 4.2 10.2 100 0.0 N 32 37 17 20 1011.7 - 1.4
29/07:30pm 10.3 4.2 10.3 100 0.0 NNW 33 44 18 24 1011.6 - 1.4
29/07:24pm 10.2 3.7 10.2 100 0.0 NNW 35 46 19 25 1011.5 - 1.4
29/07:06pm 10.5 3.3 10.5 100 0.0 NNW 39 52 21 28 1011.1 - 1.2
29/07:00pm 10.6 3.0 10.6 100 0.0 NNW 41 56 22 30 1011.1 - 1.2
29/06:57pm 10.7 2.8 10.7 100 0.0 NNW 43 56 23 30 1011.0 - 1.2
29/06:30pm 11.0 4.2 10.5 97 0.3 N 37 50 20 27 1010.8 - 1.2
29/06:04pm 11.3 4.4 10.2 93 0.6 NNW 37 57 20 31 1010.6 - 1.2
29/06:00pm 11.0 4.5 10.4 96 0.3 NNW 35 48 19 26 1010.7 1011.6 1.2
29/05:57pm 10.8 4.3 10.3 97 0.3 N 35 48 19 26 1010.4 - 1.2
29/05:36pm 10.0 3.0 10.0 100 0.0 N 37 46 20 25 1010.6 - 1.2
29/05:30pm 10.2 3.3 10.2 100 0.0 N 37 54 20 29 1010.3 - 1.2
29/05:23pm 10.5 2.9 10.5 100 0.0 NNW 41 59 22 32 1010.3 - 1.2
29/05:00pm 10.8 2.8 10.3 97 0.3 N 43 56 23 30 1009.9 - 1.2
29/04:42pm 10.7 2.5 10.4 98 0.2 N 44 67 24 36 1009.4 - 1.2
29/04:30pm 10.1 1.8 10.1 100 0.0 N 44 57 24 31 1009.4 - 1.2
29/04:11pm 9.8 1.4 9.8 100 0.0 N 44 54 24 29 1009.4 - 1.2
29/04:10pm 9.8 1.4 9.8 100 0.0 N 44 54 24 29 1009.5 - 1.2
29/04:00pm 9.6 1.8 9.6 100 0.0 N 41 52 22 28 1009.7 - 1.2
29/03:39pm 9.8 1.6 9.8 100 0.0 N 43 52 23 28 1009.6 - 0.4
29/03:31pm 9.7 1.9 9.7 100 0.0 N 41 50 22 27 1009.7 - 0.4
29/03:30pm 9.7 1.9 9.7 100 0.0 N 41 50 22 27 1009.8 - 0.4
29/03:20pm 9.6 1.8 9.6 100 0.0 N 41 52 22 28 1009.7 - 0.4
29/03:00pm 9.7 1.5 9.7 100 0.0 N 43 54 23 29 1009.5 1010.4 0.2
29/02:30pm 9.7 1.9 9.7 100 0.0 N 41 56 22 30 1009.2 - 0.2
29/02:21pm 9.3 1.4 9.3 100 0.0 N 41 50 22 27 1009.6 - 0.2
29/02:13pm 9.5 1.2 9.5 100 0.0 N 43 54 23 29 1009.4 - 0.2
29/02:00pm 9.3 1.4 9.3 100 0.0 N 41 56 22 30 1009.3 - 0.2
29/01:53pm 9.0 0.6 9.0 100 0.0 NNW 43 56 23 30 1009.6 - 0.2
29/01:30pm 8.4 -0.1 8.4 100 0.0 N 43 56 23 30 1009.3 - 0.0
29/01:00pm 8.1 0.3 8.1 100 0.0 N 39 52 21 28 1009.6 - 0.0
29/12:30pm 7.3 -0.7 7.3 100 0.0 N 39 46 21 25 1010.4 - 0.0
29/12:16pm 7.3 -0.7 7.3 100 0.0 N 39 48 21 26 1010.3 - 0.0
29/12:00pm 7.2 -1.2 7.2 100 0.0 N 41 52 22 28 1010.4 1011.4 0.0
29/11:55am 7.3 -1.5 7.3 100 0.0 N 43 54 23 29 1010.6 - 0.0
29/11:30am 6.9 -1.2 6.9 100 0.0 N 39 48 21 26 1011.6 - 0.0
29/11:00am 6.7 -1.9 6.6 99 0.0 N 41 50 22 27 1011.4 - 0.0
29/10:30am 6.4 -2.2 6.3 99 0.0 N 41 56 22 30 1010.9 - 0.0
29/10:00am 6.1 -3.0 6.1 100 0.0 N 43 56 23 30 1010.3 - 0.0
29/09:30am 5.9 -1.7 5.9 100 0.0 NNE 35 46 19 25 1011.7 - 0.0
29/09:00am 6.3 -2.0 6.3 100 0.0 N 39 46 21 25 1012.0 1013.0 0.0
29/08:55am 6.4 -2.2 6.4 100 0.0 N 41 48 22 26 1011.8 - 0.0
29/08:30am 5.2 -3.3 5.2 100 0.0 N 39 48 21 26 1011.6 - 0.0
29/08:00am 5.5 -3.9 5.5 100 0.0 N 44 57 24 31 1011.5 - 0.0
29/07:56am 5.5 -4.3 5.5 100 0.0 N 46 57 25 31 1011.3 - 0.0
29/07:30am 5.2 -3.7 5.2 100 0.0 N 41 54 22 29 1010.9 - 0.0
29/07:00am 5.3 -3.9 5.3 100 0.0 N 43 52 23 28 1010.6 - 0.0
29/06:30am 5.3 -4.5 5.3 100 0.0 N 46 56 25 30 1010.7 - 0.0
29/06:25am 5.4 -4.4 5.4 100 0.0 N 46 56 25 30 1010.6 - 0.0
29/06:24am 5.4 -4.4 5.4 100 0.0 N 46 56 25 30 1010.7 - 0.0
29/06:03am 5.6 -3.6 5.6 100 0.0 N 43 54 23 29 1010.4 - 0.0
29/06:00am 5.7 -3.1 5.7 100 0.0 N 41 54 22 29 1010.4 1011.4 0.0
29/05:47am 5.8 -3.5 5.8 100 0.0 N 44 57 24 31 1010.2 - 0.0
29/05:30am 5.8 -3.5 5.8 100 0.0 N 44 59 24 32 1010.1 - 0.0
29/05:15am 5.8 -3.9 5.8 100 0.0 N 46 59 25 32 1010.1 - 0.0
29/05:12am 5.9 -3.8 5.9 100 0.0 N 46 59 25 32 1010.2 - 0.0
29/05:00am 5.9 -4.5 5.9 100 0.0 N 50 61 27 33 1009.9 - 0.0
29/04:54am 5.8 -4.7 5.8 100 0.0 N 50 65 27 35 1009.9 - 0.0
29/04:30am 5.9 -4.5 5.9 100 0.0 N 50 61 27 33 1010.0 - 0.0
29/04:00am 5.9 -4.9 5.9 100 0.0 N 52 65 28 35 1010.0 - 0.0
29/03:37am 6.1 -3.5 6.1 100 0.0 N 46 57 25 31 1010.3 - 0.0
29/03:30am 6.1 -3.2 6.1 100 0.0 N 44 57 24 31 1010.6 - 0.0
29/03:20am 6.1 -3.2 6.1 100 0.0 N 44 52 24 28 1010.9 - 0.0
29/03:09am 6.3 -2.7 6.3 100 0.0 N 43 52 23 28 1011.0 - 0.0
29/03:00am 6.3 -2.3 6.3 100 0.0 N 41 50 22 27 1011.2 1012.2 0.0
29/02:30am 6.4 -1.8 6.4 100 0.0 N 39 44 21 24 1011.8 - 0.0
29/02:00am 6.8 -2.1 6.8 100 0.0 N 43 54 23 29 1011.7 - 0.0
29/01:30am 6.8 -1.3 6.8 100 0.0 N 39 46 21 25 1012.0 - 0.0
29/01:00am 6.1 -1.1 6.0 99 0.0 N 33 41 18 22 1012.7 - 0.0
29/12:30am 6.5 -1.0 6.4 99 0.0 N 35 46 19 25 1013.0 - 0.0
29/12:00am 6.7 -1.5 6.6 99 0.0 N 39 48 21 26 1013.1 1014.1 0.0
 
Date/Time
EST
Temp
°C
App
Temp
°C
Dew
Point
Rel
Hum
%
Delta-T
°C
Wind Press
QNH
hPa
Press
MSL
hPa
Rain
since 9 am
mm
Dir
 
Spd
km/h
Gust
km/h
Spd
kts
Gust
kts
28/11:30pm 6.5 -1.4 6.4 99 0.0 N 37 44 20 24 1013.3 - 0.0
28/11:00pm 7.0 -1.6 6.7 98 0.1 N 41 50 22 27 1013.2 - 0.0
28/10:30pm 7.3 -1.2 7.0 98 0.1 N 41 54 22 29 1013.3 - 0.0
28/10:00pm 7.7 0.4 7.4 98 0.1 N 35 46 19 25 1013.5 - 0.0
28/09:30pm 7.7 0.4 7.4 98 0.1 N 35 44 19 24 1013.6 - 0.0
28/09:00pm 7.7 2.2 7.6 99 0.0 N 26 33 14 18 1014.1 1015.1 0.0
28/08:30pm 7.9 1.3 7.8 99 0.0 N 32 39 17 21 1014.1 - 0.0
28/08:00pm 8.1 1.0 8.0 99 0.0 N 35 43 19 23 1013.9 - 0.0
28/07:30pm 8.5 1.1 8.2 98 0.1 N 37 44 20 24 1013.5 - 0.0
28/07:00pm 8.7 0.5 8.4 98 0.1 N 41 48 22 26 1013.3 - 0.0
28/06:30pm 9.0 0.9 8.5 97 0.2 N 41 52 22 28 1013.0 - 0.0
28/06:00pm 9.2 1.1 8.7 97 0.3 N 41 50 22 27 1013.1 1014.1 0.0
28/05:30pm 9.2 2.2 8.3 94 0.4 N 35 43 19 23 1013.5 - 0.0
28/05:00pm 9.3 2.2 8.1 92 0.6 N 35 44 19 24 1013.6 - 0.0
28/04:30pm 10.2 3.7 8.1 87 1.0 N 32 39 17 21 1013.8 - 0.0
28/04:00pm 10.6 4.0 8.4 86 1.1 N 33 43 18 23 1013.6 - 0.0
28/03:30pm 10.5 2.3 8.3 86 1.1 N 41 54 22 29 1012.7 - 0.0
28/03:00pm 10.6 2.8 8.2 85 1.2 N 39 50 21 27 1013.2 1014.2 0.0
28/02:30pm 10.6 2.1 8.4 86 1.1 N 43 54 23 29 1013.3 - 0.0
28/02:00pm 10.3 1.5 7.9 85 1.2 N 44 57 24 31 1013.4 - 0.0
28/01:30pm 9.9 1.0 7.8 87 1.0 N 44 56 24 30 1013.6 - 0.0
28/01:00pm 10.3 1.6 7.9 85 1.2 N 43 52 23 28 1014.4 - 0.0
28/12:30pm 9.5 1.1 7.4 87 1.0 N 41 50 22 27 1014.8 - 0.0
28/12:00pm 9.2 0.8 7.3 88 0.9 N 41 48 22 26 1015.4 1016.4 0.0
28/11:30am 9.3 2.0 7.4 88 0.9 N 35 46 19 25 1015.9 - 0.0
28/11:00am 8.0 0.2 6.8 92 0.6 N 37 46 20 25 1016.3 - 0.0
28/10:30am 7.2 -0.6 6.8 97 0.2 N 37 44 20 24 1016.7 - 0.0
28/10:00am 6.5 -1.3 6.5 100 0.0 N 37 48 20 26 1017.0 - 0.0
28/09:30am 5.3 -2.4 5.3 100 0.0 NNE 35 46 19 25 1017.2 - 0.0
28/09:00am 5.0 -3.5 5.0 100 0.0 N 39 48 21 26 1017.3 1018.3 0.2
28/08:46am 4.8 -3.8 4.8 100 0.0 N 39 48 21 26 1017.4 - 0.2
28/08:41am 4.9 -3.7 4.9 100 0.0 N 39 48 21 26 1017.3 - 0.2
28/08:30am 4.8 -3.0 4.8 100 0.0 N 35 43 19 23 1017.6 - 0.2
28/08:00am 4.2 -3.3 4.2 100 0.0 N 33 41 18 22 1017.5 - 0.2
28/07:30am 4.4 -2.5 4.4 100 0.0 NNE 30 37 16 20 1017.7 - 0.2
28/07:03am 4.4 -2.9 4.4 100 0.0 NNE 32 39 17 21 1017.6 - 0.2
28/07:00am 4.4 -2.9 4.4 100 0.0 N 32 39 17 21 1017.6 - 0.2
28/06:52am 4.5 -3.0 4.5 100 0.0 N 33 39 18 21 1017.5 - 0.2
28/06:44am 4.6 -3.6 4.6 100 0.0 N 37 44 20 24 1017.5 - 0.2
28/06:40am 4.6 -3.6 4.6 100 0.0 N 37 46 20 25 1017.5 - 0.0
28/06:30am 4.7 -3.9 4.7 100 0.0 N 39 46 21 25 1017.5 - 0.0
28/06:00am 4.7 -3.5 4.7 100 0.0 N 37 46 20 25 1017.2 1018.2 0.0
28/05:30am 4.9 -4.6 4.9 100 0.0 N 44 54 24 29 1017.1 - 0.0
28/05:00am 5.0 -4.5 5.0 100 0.0 N 44 54 24 29 1017.1 - 0.0
28/04:30am 5.2 -3.7 5.2 100 0.0 N 41 52 22 28 1017.3 - 0.0
28/04:00am 5.3 -3.6 5.3 100 0.0 N 41 50 22 27 1017.6 - 0.0
28/03:30am 5.5 -3.3 5.5 100 0.0 N 41 52 22 28 1017.6 - 0.0
28/03:00am 5.7 -3.4 5.7 100 0.0 N 43 54 23 29 1017.7 1018.8 0.0
28/02:30am 5.8 -3.3 5.8 100 0.0 N 43 52 23 28 1017.8 - 0.0
28/02:00am 5.9 -3.2 5.9 100 0.0 N 43 54 23 29 1018.1 - 0.0
28/01:30am 6.1 -3.0 6.1 100 0.0 N 43 57 23 31 1018.4 - 0.0
28/01:00am 6.3 -3.7 6.3 100 0.0 N 48 59 26 32 1018.1 - 0.0
28/12:32am 6.4 -2.8 6.4 100 0.0 N 44 63 24 34 1018.4 - 0.0
28/12:30am 6.4 -2.8 6.4 100 0.0 N 44 54 24 29 1018.7 - 0.0
28/12:00am 6.5 -3.0 6.5 100 0.0 N 46 57 25 31 1019.0 1020.0 0.0
 
Date/Time
EST
Temp
°C
App
Temp
°C
Dew
Point
Rel
Hum
%
Delta-T
°C
Wind Press
QNH
hPa
Press
MSL
hPa
Rain
since 9 am
mm
Dir
 
Spd
km/h
Gust
km/h
Spd
kts
Gust
kts
27/11:30pm 6.7 -3.9 6.7 100 0.0 N 52 63 28 34 1018.8 - 0.0
27/11:00pm 7.0 -1.9 7.0 100 0.0 N 43 54 23 29 1019.5 - 0.0
27/10:30pm 7.3 -0.7 7.3 100 0.0 N 39 46 21 25 1020.2 - 0.0
27/10:00pm 7.5 0.8 7.5 100 0.0 N 32 41 17 22 1020.9 - 0.0
27/09:30pm 7.8 1.2 7.8 100 0.0 N 32 41 17 22 1021.0 - 0.0
27/09:00pm 8.0 1.5 8.0 100 0.0 N 32 39 17 21 1021.2 1022.3 0.0
27/08:30pm 8.1 1.6 8.1 100 0.0 N 32 41 17 22 1021.0 - 0.0
27/08:00pm 8.1 1.4 8.1 100 0.0 N 33 41 18 22 1021.0 - 0.0
27/07:50pm 8.1 1.0 8.1 100 0.0 N 35 44 19 24 1020.7 - 0.0
27/07:39pm 8.1 1.4 8.1 100 0.0 N 33 46 18 25 1020.7 - 0.0
27/07:30pm 8.1 2.0 8.1 100 0.0 N 30 39 16 21 1020.6 - 0.0
27/07:00pm 8.3 2.9 8.2 99 0.0 N 26 37 14 20 1020.6 - 0.0

Other Formats:

Comma delimited format used in spreadsheet applications
http://www.bom.gov.au/fwo/IDV60801/IDV60801.94860.axf

JavaScript Object Notation format (JSON) in row-major order
http://www.bom.gov.au/fwo/IDV60801/IDV60801.94860.json